Derby, Ohio
Current Conditions -  °F | °C
As of 8:50 AM on Saturday 25 Oct 2014 (Local Time) from KTZR Reporting Station
Haze Haze  
Wind Chill: 45°   Ceiling: Unl
Heat Index: 48°   Visibility: 7mi
Dew Point: 46°   Wind: 7mph
Humidity: 93%   Direction: 200°SSW
Pressure: 29.97"   Gusts: NA
Location:  39.77°N, 83.21°W
Report Text: KTZR 251250Z 20006KT 7SM BR SCT065 09/08 A2997
Loading
Personal Weather Stations






























Interactive Weather Map
Tropical Storm Tracking
New forecast layout! Learn more

10-Day Weather Forecast

Advertisements
Track Severe Weather on mobile